Tiempo atmosférico en la estación meteorológica de Benahavis, Málaga (399 m.)



Fecha
DESCASC
Temp. máxima en grados centígrados (hora)
DESCASC
Temp. mínima en grados centígrados (hora)
DESCASC
Temp. media en grados centígrados
DESCASC
Racha de viento máxima en m/sg (hora)
DESCASC
Velocidad máxima media en intervalos de 10 minutos(hora)
DESCASC
Precipitaciones diarias en mm
DESCASC
Precipitaciones de 00:00 a 06:00 en mm
DESCASC
Precipitaciones de 06:00 a 12:00 en mm
DESCASC
Precipitaciones de 12:00 a 18:00 en mm
DESCASC
Precipitaciones de 18:00 a 24:00 en mm
DESCASC
14-12-2019 18.2 (15:00) 9 (08:30) 13.6 3.89 (07:30) 2.22 (07:20) 0 0 0 0 0
13-12-2019 20 (15:50) 11.3 (23:50) 15.7 13.61 (07:50) 6.67 (12:40) 0 0 0 0 0
12-12-2019 16.5 (14:40) 7.7 (03:20) 12.1 13.33 (23:59) 6.39 (20:00) 0 0 0 0 0
11-12-2019 21.1 (14:40) 10.6 (00:00) 15.9 10.28 (19:00) 4.72 (19:10) 0 0 0 0 0
10-12-2019 21.2 (15:00) 10.1 (00:00) 15.7 4.17 (15:50) 2.5 (15:00) 0 0 0 0 0
09-12-2019 20.2 (13:10) 12.9 (00:00) 16.6 9.72 (06:10) 6.11 (06:10) 0 0 0 0 0
08-12-2019 20.2 (15:50) 8.5 (00:00) 14.4 6.67 (19:50) 2.78 (20:20) 0 0 0 0 0
07-12-2019 18.1 (14:40) 9.6 (00:00) 13.9 4.72 (14:40) 2.78 (14:40) 0 0 0 0 0
06-12-2019 16.7 (13:50) 10.2 (00:00) 13.5 7.5 (11:40) 2.22 (09:10) 0 0 0 0 0
05-12-2019 14.4 (13:50) 7.7 (00:00) 11 8.33 (19:50) 4.17 (19:40) 0 0 0 0 0
04-12-2019 17.8 (15:30) 8.7 (00:00) 13.2 8.61 (14:20) 4.72 (14:00) 0 0 0 0 0
03-12-2019 17.6 (16:00) 10 (00:00) 13.8 6.94 (09:00) 3.33 (04:00) 2 1.8 0.2 0 0
02-12-2019 11.4 (21:50) 8.9 (00:00) 10.1 9.44 (18:00) 4.17 (19:00) 8.6 0 1.8 5.8 1
01-12-2019 19.1 (14:30) 9.7 (00:00) 14.4 10 (06:20) 5.56 (16:20) 0 0 0 0 0
30-11-2019 20.9 (16:10) 10.9 (00:00) 15.9 4.17 (15:40) 2.5 (23:50) 0 0 0 0 0
29-11-2019 22.7 (16:40) 11.2 (00:00) 17 6.11 (08:30) 2.78 (08:30) 0 0 0 0 0
28-11-2019 21.1 (15:40) 10.2 (00:00) 15.7 5.28 (08:10) 3.61 (08:00) 0 0 0 0 0
27-11-2019 21.9 (16:00) 12.9 (00:00) 17.4 9.44 (09:30) 5 (12:30) 0 0 0 0 0
26-11-2019 23.6 (15:10) 12.6 (00:00) 18.1 10 (23:59) 5.28 (17:30) 0 0 0 0 0
25-11-2019 20.9 (15:40) 9.4 (00:00) 15.1 8.61 (13:30) 4.44 (14:20) 0 0 0 0 0
24-11-2019 18.7 (15:30) 8 (00:00) 13.4 7.22 (15:10) 3.61 (22:20) 0 0 0 0 0
23-11-2019 18 (16:10) 9.6 (00:00) 13.8 20 (02:20) 7.78 (02:40) 0.2 0.2 0 0 0
22-11-2019 15.7 (18:50) 11.9 (00:00) 13.8 21.39 (17:40) 9.44 (17:20) 40.6 7.8 13.8 4.4 14.6
21-11-2019 12.7 (13:50) 9.3 (00:00) 11 7.78 (15:30) 3.61 (12:50) 34.6 9 15.6 8.2 1.8
20-11-2019 11.1 (10:00) 6.1 (00:00) 8.6 9.72 (14:30) 5 (18:10) 4.2 0 1.6 2.4 0.2
19-11-2019 17 (15:00) 7.4 (00:00) 12.2 5.28 (14:50) 3.33 (18:10) 0 0 0 0 0
18-11-2019 16 (13:10) 8.2 (00:00) 12.1 14.44 (02:10) 7.5 (01:20) 0 0 0 0 0
17-11-2019 13.9 (23:10) 6.2 (00:00) 10 11.67 (22:20) 5.83 (22:20) 0 0 0 0 0
16-11-2019 17.1 (16:20) 5.7 (00:00) 11.4 8.89 (19:00) 3.89 (18:50) 0 0 0 0 0

Gráficas

Temp. máximas Temp. mínimas Temp. medias Precipitaciones Rachas de viento máximas Velocidades máximas media en intervalos de 10 minutos

Datos horarios

Fecha y hora oficial Temperatura (ºC) Velocidad del viento (km/h) Dirección del viento Racha (km/h) Dirección de racha Precipitación (mm) Presión (hPa) Tendencia (hPa) Humedad (%)
2019-12-15 23:00:00 9.7 0 Calma 7 Sur 0 -- -- 79
2019-12-15 22:00:00 9.9 0 Calma 5 Sudoeste 0 -- -- 75
2019-12-15 21:00:00 10.7 2 Sur 6 Noroeste 0 -- -- 72
2019-12-15 20:00:00 11.6 0 Calma 5 Sudoeste 0 -- -- 67
2019-12-15 19:00:00 11.5 0 Calma 7 Nordeste 0 -- -- 69
2019-12-15 18:00:00 12.8 4 Este 8 Este 0 -- -- 62
2019-12-15 17:00:00 15.4 0 Calma 6 Oeste 0 -- -- 59
2019-12-15 16:00:00 16.1 2 Este 9 Este 0 -- -- 51
2019-12-15 15:00:00 17.4 4 Sudoeste 10 Sudoeste 0 -- -- 48
2019-12-15 14:00:00 17.3 8 Sudoeste 12 Sudoeste 0 -- -- 49
2019-12-15 13:00:00 16.6 9 Sudoeste 13 Sudoeste 0 -- -- 53
2019-12-15 12:00:00 15.1 0 Calma 4 Sudoeste 0 -- -- 52
2019-12-15 11:00:00 12.3 0 Calma 3 Sudoeste 0 -- -- 63
2019-12-15 10:00:00 9.1 0 Calma 3 Sur 0 -- -- 68
2019-12-15 09:00:00 8.3 0 Calma 3 Sudeste 0 -- -- 68
2019-12-15 08:00:00 8.9 2 Nordeste 10 Este 0 -- -- 66
2019-12-15 07:00:00 8.3 5 Nordeste 7 Nordeste 0 -- -- 64
2019-12-15 06:00:00 8.4 2 Nordeste 5 Nordeste 0 -- -- 68
2019-12-15 05:00:00 8.4 0 Calma 5 Nordeste 0 -- -- 70
2019-12-15 04:00:00 8.7 3 Nordeste 11 Este 0 -- -- 69
2019-12-15 03:00:00 9.4 4 Nordeste 14 Nordeste 0 -- -- 65
2019-12-15 02:00:00 8.7 4 Nordeste 8 Nordeste 0 -- -- 72
2019-12-15 01:00:00 9 5 Nordeste 8 Este 0 -- -- 70
2019-12-15 00:00:00 9.4 6 Este 11 Este 0 -- -- 70
2019-12-14 23:00:00 9.8 7 Este 13 Nordeste 0 -- -- 71
2019-12-14 22:00:00 9.8 6 Este 10 Este 0 -- -- 74
2019-12-14 21:00:00 10.6 6 Nordeste 12 Este 0 -- -- 71
2019-12-14 20:00:00 10.8 5 Este 9 Este 0 -- -- 73
2019-12-14 19:00:00 12.1 6 Este 11 Este 0 -- -- 69
2019-12-14 18:00:00 14.1 2 Sudeste 7 Nordeste 0 -- -- 64
2019-12-14 17:00:00 18 2 Sur 9 Este 0 -- -- 51
2019-12-14 16:00:00 17.8 4 Sudeste 9 Este 0 -- -- 54
2019-12-14 15:00:00 18.2 3 Sudeste 10 Sudoeste 0 -- -- 51
2019-12-14 14:00:00 16.8 4 Nordeste 10 Este 0 -- -- 57
2019-12-14 13:00:00 16.7 5 Este 10 Nordeste 0 -- -- 56
2019-12-14 12:00:00 15.6 3 Este 9 Nordeste 0 -- -- 58
2019-12-14 11:00:00 14 4 Este 13 Nordeste 0 -- -- 62
2019-12-14 10:00:00 11.6 4 Este 13 Nordeste 0 -- -- 70
2019-12-14 09:00:00 9.4 5 Nordeste 9 Nordeste 0 -- -- 80
2019-12-14 08:00:00 9.6 0 Calma 14 Nordeste 0 -- -- 79
2019-12-14 07:00:00 9.1 0 Calma 4 Oeste 0 -- -- 82
2019-12-14 06:00:00 9.8 0 Calma 8 Nordeste 0 -- -- 78
2019-12-14 05:00:00 9.8 4 Nordeste 9 Nordeste 0 -- -- 77
2019-12-14 04:00:00 9.7 0 Calma 8 Nordeste 0 -- -- 79
2019-12-14 03:00:00 10.8 5 Nordeste 10 Este 0 -- -- 74
2019-12-14 02:00:00 11.3 5 Sudeste 13 Sur 0 -- -- 71
2019-12-14 01:00:00 11.4 3 Sudeste 6 Sudeste 0 -- -- 74
2019-12-14 00:00:00 11.3 0 Calma 14 Norte 0 -- -- 73
2019-12-13 23:00:00 12.2 4 Nordeste 11 Sudeste 0 -- -- 68
2019-12-13 22:00:00 12.5 3 Nordeste 12 Sudoeste 0 -- -- 68
2019-12-13 21:00:00 13.1 3 Sur 16 Sudeste 0 -- -- 64
2019-12-13 20:00:00 14.8 6 Sudeste 28 Norte 0 -- -- 58
2019-12-13 19:00:00 14.8 10 Nordeste 30 Nordeste 0 -- -- 59
2019-12-13 18:00:00 15.8 4 Oeste 36 Noroeste 0 -- -- 57
2019-12-13 17:00:00 18 8 Oeste 34 Noroeste 0 -- -- 55
2019-12-13 16:00:00 19.9 12 Sudoeste 41 Sudoeste 0 -- -- 51
2019-12-13 15:00:00 19.1 20 Sudoeste 44 Sudoeste 0 -- -- 52
2019-12-13 14:00:00 18.5 22 Sudoeste 46 Sudoeste 0 -- -- 54
2019-12-13 13:00:00 17.3 23 Sudoeste 44 Sudoeste 0 -- -- 59
2019-12-13 12:00:00 16.5 20 Sudoeste 47 Sudoeste 0 -- -- 63
2019-12-13 11:00:00 15.5 15 Sudoeste 45 Sudoeste 0 -- -- 64
2019-12-13 10:00:00 14 14 Sudoeste 41 Sudoeste 0 -- -- 73
2019-12-13 09:00:00 13.7 14 Sudoeste 37 Oeste 0 -- -- 75
2019-12-13 08:00:00 13.7 14 Sudoeste 49 Oeste 0 -- -- 73
2019-12-13 07:00:00 13.6 11 Sudoeste 35 Sudoeste 0 -- -- 76
2019-12-13 06:00:00 13.7 14 Sudoeste 36 Sudoeste 0 -- -- 75
2019-12-13 05:00:00 13.4 13 Sudoeste 40 Oeste 0 -- -- 77
2019-12-13 04:00:00 13.2 17 Sudoeste 42 Oeste 0 -- -- 76
2019-12-13 03:00:00 12.8 13 Sudoeste 35 Sudoeste 0 -- -- 77
2019-12-13 02:00:00 12.8 14 Sudoeste 40 Sudoeste 0 -- -- 75
2019-12-13 01:00:00 12.6 15 Sudoeste 37 Sur 0 -- -- 76
2019-12-13 00:00:00 12.8 23 Sudoeste 48 Sudoeste 0 -- -- 73
2019-12-12 23:00:00 12.8 22 Sudoeste 43 Oeste 0 -- -- 71
2019-12-12 22:00:00 12.8 14 Sudoeste 40 Sudoeste 0 -- -- 67
2019-12-12 21:00:00 12.4 16 Sudoeste 39 Sudoeste 0 -- -- 66
2019-12-12 20:00:00 12.1 23 Sudoeste 40 Sudoeste 0 -- -- 65
2019-12-12 19:00:00 12.4 18 Sudoeste 38 Sudoeste 0 -- -- 64
2019-12-12 18:00:00 12.8 14 Sudoeste 24 Sudoeste 0 -- -- 58
2019-12-12 17:00:00 14.5 8 Sudoeste 31 Sudoeste 0 -- -- 49
2019-12-12 16:00:00 15.7 13 Sudoeste 32 Sudoeste 0 -- -- 48
2019-12-12 15:00:00 16.3 13 Sudoeste 47 Sudoeste 0 -- -- 46
2019-12-12 14:00:00 16.2 11 Sudoeste 35 Oeste 0 -- -- 48
2019-12-12 13:00:00 15.4 14 Sudoeste 37 Sudoeste 0 -- -- 47
2019-12-12 12:00:00 14.3 10 Nordeste 32 Nordeste 0 -- -- 41
2019-12-12 11:00:00 13.1 11 Norte 32 Norte 0 -- -- 44
2019-12-12 10:00:00 11.4 13 Norte 42 Norte 0 -- -- 44
2019-12-12 09:00:00 9.9 8 Norte 26 Norte 0 -- -- 51
2019-12-12 08:00:00 8.7 5 Este 13 Este 0 -- -- 54
2019-12-12 07:00:00 9.1 5 Este 12 Nordeste 0 -- -- 51
2019-12-12 06:00:00 9.3 7 Este 14 Este 0 -- -- 47
2019-12-12 05:00:00 8.6 9 Este 16 Nordeste 0 -- -- 47
2019-12-12 04:00:00 8.2 9 Este 13 Este 0 -- -- 48
2019-12-12 03:00:00 7.8 4 Nordeste 6 Nordeste 0 -- -- 52
2019-12-12 02:00:00 8.5 5 Este 10 Nordeste 0 -- -- 54
2019-12-12 01:00:00 9.4 5 Nordeste 16 Nordeste 0 -- -- 54
2019-12-12 00:00:00 10.6 8 Nordeste 27 Nordeste 0 -- -- 52
2019-12-11 23:00:00 11.5 10 Nordeste 23 Nordeste 0 -- -- 51
2019-12-11 22:00:00 12.6 3 Oeste 30 Norte 0 -- -- 53
2019-12-11 21:00:00 14.4 5 Norte 33 Norte 0 -- -- 39
2019-12-11 20:00:00 14.2 6 Sudeste 37 Norte 0 -- -- 52
2019-12-11 19:00:00 14.7 16 Norte 37 Norte 0 -- -- 55
2019-12-11 18:00:00 16.4 8 Nordeste 23 Sudoeste 0 -- -- 56
2019-12-11 17:00:00 20.1 7 Sudoeste 25 Sudoeste 0 -- -- 46
2019-12-11 16:00:00 20.7 10 Sudoeste 34 Oeste 0 -- -- 44
2019-12-11 15:00:00 20.5 11 Oeste 35 Noroeste 0 -- -- 41
2019-12-11 14:00:00 20.9 14 Sudoeste 36 Sudoeste 0 -- -- 21
2019-12-11 13:00:00 20.1 7 Oeste 32 Sudoeste 0 -- -- 19
2019-12-11 12:00:00 19.4 9 Sudoeste 24 Sudoeste 0 -- -- 23
2019-12-11 11:00:00 17.5 8 Sudoeste 23 Sudoeste 0 -- -- 26
2019-12-11 10:00:00 13.6 3 Sur 11 Este 0 -- -- 40
2019-12-11 09:00:00 14.5 4 Sudeste 15 Este 0 -- -- 35
2019-12-11 08:00:00 14 6 Sur 13 Sur 0 -- -- 34
2019-12-11 07:00:00 14.1 4 Sudoeste 13 Sur 0 -- -- 36
2019-12-11 06:00:00 14.1 4 Sur 21 Noroeste 0 -- -- 37
2019-12-11 05:00:00 12.3 3 Este 9 Norte 0 -- -- 42
2019-12-11 04:00:00 12.3 4 Norte 10 Nordeste 0 -- -- 39
2019-12-11 03:00:00 11.8 2 Nordeste 10 Este 0 -- -- 41
2019-12-11 02:00:00 12.8 4 Nordeste 11 Nordeste 0 -- -- 37
2019-12-11 01:00:00 12.1 5 Nordeste 9 Nordeste 0 -- -- 45
2019-12-11 00:00:00 12.2 0 Calma 4 Nordeste 0 -- -- 52
2019-12-10 23:00:00 12.2 2 Este 6 Nordeste 0 -- -- 53
2019-12-10 22:00:00 12.7 0 Calma -- -- 0 -- -- 60
2019-12-10 21:00:00 12.6 0 Calma 6 Nordeste 0 -- -- 60
2019-12-10 20:00:00 12.8 5 Nordeste 6 Nordeste 0 -- -- 61
2019-12-10 19:00:00 13.4 4 Nordeste 8 Nordeste 0 -- -- 64
2019-12-10 18:00:00 14.9 4 Nordeste 10 Este 0 -- -- 58
2019-12-10 17:00:00 16.8 6 Este 10 Nordeste 0 -- -- 52
2019-12-10 16:00:00 19.4 6 Nordeste 15 Sudoeste 0 -- -- 49
2019-12-10 15:00:00 21.2 9 Sudoeste 14 Sudoeste 0 -- -- 42
2019-12-10 14:00:00 20.1 8 Sudoeste 12 Sudoeste 0 -- -- 43
2019-12-10 13:00:00 18.9 5 Sudoeste 9 Sudoeste 0 -- -- 37
2019-12-10 12:00:00 17.2 3 Sudoeste 5 Sudoeste 0 -- -- 49
2019-12-10 11:00:00 14.9 0 Calma 6 Este 0 -- -- 52
2019-12-10 10:00:00 11.6 4 Nordeste 5 Nordeste 0 -- -- 51
2019-12-10 09:00:00 10.4 0 Calma 5 Nordeste 0 -- -- 51
2019-12-10 08:00:00 10.9 0 Calma 4 Nordeste 0 -- -- 44
2019-12-10 07:00:00 10.5 0 Calma 3 Este 0 -- -- 57
2019-12-10 06:00:00 10.2 0 Calma 2 Este 0 -- -- 59
2019-12-10 05:00:00 10.6 0 Calma 3 Nordeste 0 -- -- 64
2019-12-10 04:00:00 10.7 0 Calma 3 Nordeste 0 -- -- 70
2019-12-10 03:00:00 10.9 0 Calma 15 Nordeste 0 -- -- 63
2019-12-10 02:00:00 12 5 Nordeste 9 Nordeste 0 -- -- 60
2019-12-10 01:00:00 12.6 2 Sudeste 4 Sur 0 -- -- 68
2019-12-10 00:00:00 12.9 0 Calma 4 Nordeste 0 -- -- 69
2019-12-09 23:00:00 13.7 0 Calma 12 Nordeste 0 -- -- 57
2019-12-09 22:00:00 13.4 5 Este 10 Este 0 -- -- 60
2019-12-09 21:00:00 13.9 6 Este 14 Nordeste 0 -- -- 63
2019-12-09 20:00:00 13.7 7 Nordeste 14 Nordeste 0 -- -- 69
2019-12-09 19:00:00 14.5 8 Nordeste 15 Nordeste 0 -- -- 72
2019-12-09 18:00:00 15.8 6 Nordeste 12 Este 0 -- -- 69
2019-12-09 17:00:00 17.1 5 Este 13 Nordeste 0 -- -- 63
2019-12-09 16:00:00 17.4 4 Este 10 Nordeste 0 -- -- 63
2019-12-09 15:00:00 18.4 5 Este 18 Nordeste 0 -- -- 59
2019-12-09 14:00:00 19.4 2 Este 12 Sudoeste 0 -- -- 64
2019-12-09 13:00:00 19.8 4 Sudoeste 10 Oeste 0 -- -- 61
2019-12-09 12:00:00 17.9 4 Sudoeste 9 Este 0 -- -- 67
2019-12-09 11:00:00 15.9 4 Nordeste 21 Nordeste 0 -- -- 72
2019-12-09 10:00:00 14.2 11 Nordeste 29 Nordeste 0 -- -- 77
2019-12-09 09:00:00 13.1 7 Nordeste 14 Norte 0 -- -- 81
2019-12-09 08:00:00 14 5 Este 20 Nordeste 0 -- -- 76
2019-12-09 07:00:00 14.2 9 Nordeste 35 Norte 0 -- -- 74
2019-12-09 06:00:00 14.3 15 Norte 25 Nordeste 0 -- -- 74
2019-12-09 05:00:00 14.4 12 Nordeste 22 Nordeste 0 -- -- 72
2019-12-09 04:00:00 13.7 6 Nordeste 19 Nordeste 0 -- -- 71
2019-12-09 03:00:00 13.7 4 Norte 13 Nordeste 0 -- -- 68
2019-12-09 02:00:00 13.8 0 Calma 11 Norte 0 -- -- 63
2019-12-09 01:00:00 14.1 3 Sudoeste 15 Nordeste 0 -- -- 62
2019-12-09 00:00:00 14.5 4 Sudeste 20 Este 0 -- -- 57
2019-12-08 23:00:00 14 0 Calma 5 Nordeste 0 -- -- 57
2019-12-08 22:00:00 15.4 8 Nordeste 20 Norte 0 -- -- 49
2019-12-08 21:00:00 15.4 4 Norte 23 Norte 0 -- -- 48
2019-12-08 20:00:00 14.5 3 Noroeste 24 Norte 0 -- -- 43
2019-12-08 19:00:00 14.3 2 Sudoeste 17 Norte 0 -- -- 60
2019-12-08 18:00:00 15 0 Calma 7 Nordeste 0 -- -- 62
2019-12-08 17:00:00 17.4 4 Nordeste 8 Sudoeste 0 -- -- 61
2019-12-08 16:00:00 19.8 3 Nordeste 12 Sudoeste 0 -- -- 52
2019-12-08 15:00:00 19.5 3 Sur 9 Sur 0 -- -- 51
2019-12-08 14:00:00 18.1 4 Sudoeste 10 Sudoeste 0 -- -- 60
2019-12-08 13:00:00 16.7 0 Calma 9 Este 0 -- -- 63
2019-12-08 12:00:00 15.3 0 Calma 5 Sudoeste 0 -- -- 70
2019-12-08 11:00:00 13.1 0 Calma 3 Sudoeste 0 -- -- 80
2019-12-08 10:00:00 10.4 0 Calma 4 Nordeste 0 -- -- 85
2019-12-08 09:00:00 9.4 0 Calma 6 Nordeste 0 -- -- 89
2019-12-08 08:00:00 8.9 3 Este 4 Este 0 -- -- 91
2019-12-08 07:00:00 8.9 2 Este 3 Nordeste 0 -- -- 93
2019-12-08 06:00:00 8.6 2 Este 3 Nordeste 0 -- -- 94
2019-12-08 05:00:00 8.8 0 Calma 2 Sudeste 0 -- -- 94
2019-12-08 04:00:00 8.8 0 Calma 2 Este 0 -- -- 96
2019-12-08 03:00:00 8.8 0 Calma 2 Este 0 -- -- 96
2019-12-08 02:00:00 8.9 0 Calma 3 Nordeste 0 -- -- 96
2019-12-08 01:00:00 9.3 2 Nordeste 4 Nordeste 0 -- -- 97
2019-12-08 00:00:00 9.6 0 Calma 3 Sudeste 0 -- -- 97
2019-12-07 23:00:00 10.1 3 Nordeste 5 Nordeste 0 -- -- 96
2019-12-07 22:00:00 10.1 0 Calma 5 Nordeste 0 -- -- 95
2019-12-07 21:00:00 10.6 3 Nordeste 4 Nordeste 0 -- -- 94
2019-12-07 20:00:00 11.4 0 Calma 5 Nordeste 0 -- -- 90
2019-12-07 19:00:00 13.2 0 Calma 4 Sudoeste 0 -- -- 82
2019-12-07 18:00:00 15.4 3 Sudoeste 10 Sur 0 -- -- 75
2019-12-07 17:00:00 17.6 6 Sudoeste 14 Sudoeste 0 -- -- 64
2019-12-07 16:00:00 17.7 8 Sudoeste 15 Sudoeste 0 -- -- 62
2019-12-07 15:00:00 17.7 6 Sur 17 Sudoeste 0 -- -- 64
2019-12-07 14:00:00 17.6 4 Sur 16 Sudoeste 0 -- -- 61
2019-12-07 13:00:00 16.7 8 Sudoeste 16 Sudoeste 0 -- -- 62
2019-12-07 12:00:00 15.9 4 Sudoeste 9 Sudoeste 0 -- -- 65
2019-12-07 11:00:00 14.3 0 Calma 5 Este 0 -- -- 70
2019-12-07 10:00:00 12.6 2 Nordeste 3 Nordeste 0 -- -- 73
2019-12-07 09:00:00 11.3 0 Calma 5 Este 0 -- -- 74
2019-12-07 08:00:00 10.7 0 Calma 2 Sudeste 0 -- -- 84
2019-12-07 07:00:00 11 0 Calma 2 Este 0 -- -- 86
2019-12-07 06:00:00 11.1 0 Calma 4 Sur 0 -- -- 83
2019-12-07 05:00:00 11 0 Calma 3 Sudeste 0 -- -- 85
2019-12-07 04:00:00 10.9 2 Este 5 Nordeste 0 -- -- 86
2019-12-07 03:00:00 11 0 Calma 6 Este 0 -- -- 87
2019-12-07 02:00:00 11.1 0 Calma 6 Nordeste 0 -- -- 88
2019-12-07 01:00:00 11.8 3 Nordeste 14 Este 0 -- -- 85
2019-12-07 00:00:00 11.1 3 Oeste 14 Nordeste 0 -- -- 87
2019-12-06 23:00:00 10.9 4 Nordeste 9 Nordeste 0 -- -- 84
2019-12-06 22:00:00 11.2 3 Este 6 Este 0 -- -- 81
2019-12-06 21:00:00 11.8 0 Calma 8 Este 0 -- -- 77
2019-12-06 20:00:00 11.6 2 Este 5 Nordeste 0 -- -- 80
2019-12-06 19:00:00 12.7 2 Nordeste 9 Este 0 -- -- 76
2019-12-06 18:00:00 14.4 0 Calma 10 Este 0 -- -- 66
2019-12-06 17:00:00 15.7 4 Este 21 Nordeste 0 -- -- 64
2019-12-06 16:00:00 16.4 8 Este 24 Este 0 -- -- 60
2019-12-06 15:00:00 16.7 6 Este 18 Este 0 -- -- 62
2019-12-06 14:00:00 16.6 7 Este 19 Nordeste 0 -- -- 62
2019-12-06 13:00:00 16.2 5 Este 19 Nordeste 0 -- -- 63
2019-12-06 12:00:00 16 8 Este 27 Nordeste 0 -- -- 61
2019-12-06 11:00:00 15.6 6 Sudeste 24 Este 0 -- -- 65
2019-12-06 10:00:00 13.9 6 Nordeste 27 Este 0 -- -- 72
2019-12-06 09:00:00 12.6 8 Nordeste 21 Nordeste 0 -- -- 73
2019-12-06 08:00:00 11.6 5 Nordeste 15 Nordeste 0 -- -- 77
2019-12-06 07:00:00 10.9 2 Sudoeste 8 Sur 0 -- -- 82
2019-12-06 06:00:00 10.5 0 Calma 6 Norte 0 -- -- 83
2019-12-06 05:00:00 11.2 3 Sudoeste 10 Este 0 -- -- 81
2019-12-06 04:00:00 11.2 3 Sudeste 11 Norte 0 -- -- 82
2019-12-06 03:00:00 10.4 2 Nordeste 5 Este 0 -- -- 87
2019-12-06 02:00:00 11.5 2 Sudeste 9 Sudeste 0 -- -- 77
2019-12-06 01:00:00 11.8 2 Nordeste 12 Nordeste 0 -- -- 77
2019-12-06 00:00:00 12.4 2 Sudoeste 17 Sudeste 0 -- -- 73
2019-12-05 23:00:00 12.6 3 Este 20 Nordeste 0 -- -- 71
2019-12-05 22:00:00 12.6 5 Este 28 Nordeste 0 -- -- 73
2019-12-05 21:00:00 12.6 8 Nordeste 27 Nordeste 0 -- -- 70
2019-12-05 20:00:00 12.6 15 Nordeste 30 Nordeste 0 -- -- 70
2019-12-05 19:00:00 12.3 12 Nordeste 22 Norte 0 -- -- 69
2019-12-05 18:00:00 12.3 10 Nordeste 27 Nordeste 0 -- -- 67
2019-12-05 17:00:00 12.4 13 Nordeste 24 Este 0 -- -- 71
2019-12-05 16:00:00 13.1 12 Nordeste 23 Nordeste 0 -- -- 68
2019-12-05 15:00:00 12.6 3 Este 14 Nordeste 0 -- -- 74
2019-12-05 14:00:00 14.2 4 Sur 18 Sur 0 -- -- 71
2019-12-05 13:00:00 14.1 6 Nordeste 15 Este 0 -- -- 60
2019-12-05 12:00:00 14.2 4 Este 13 Nordeste 0 -- -- 58
2019-12-05 11:00:00 12.7 5 Nordeste 12 Nordeste 0 -- -- 59
2019-12-05 10:00:00 9.4 2 Sudoeste 6 Sudoeste 0 -- -- 72
2019-12-05 09:00:00 8.9 0 Calma 6 Oeste 0 -- -- 69
2019-12-05 08:00:00 9.9 4 Nordeste 18 Nordeste 0 -- -- 65
2019-12-05 07:00:00 7.9 0 Calma 8 Nordeste 0 -- -- 74
2019-12-05 06:00:00 8.3 0 Calma 10 Nordeste 0 -- -- 71
2019-12-05 05:00:00 9.5 9 Nordeste 22 Nordeste 0 -- -- 66
2019-12-05 04:00:00 10 8 Nordeste 16 Nordeste 0 -- -- 63
2019-12-05 03:00:00 9.8 5 Nordeste 13 Nordeste 0 -- -- 63
2019-12-05 02:00:00 10.1 2 Nordeste 10 Nordeste 0 -- -- 63
2019-12-05 01:00:00 9.4 3 Nordeste 6 Este 0 -- -- 66
2019-12-05 00:00:00 9 0 Calma 4 Sudeste 0 -- -- 66
2019-12-04 23:00:00 9.2 3 Sudeste 8 Nordeste 0 -- -- 64
2019-12-04 22:00:00 8.8 2 Sudeste 10 Sur 0 -- -- 61
2019-12-04 21:00:00 9.1 3 Sur 7 Sudoeste 0 -- -- 66
2019-12-04 20:00:00 9.8 0 Calma 8 Nordeste 0 -- -- 71
2019-12-04 19:00:00 11.1 0 Calma 24 Sudoeste 0 -- -- 65
2019-12-04 18:00:00 13.2 10 Sudoeste 25 Sudoeste 0 -- -- 60
2019-12-04 17:00:00 16.4 14 Sudoeste 24 Sudoeste 0 -- -- 47
2019-12-04 16:00:00 17.1 9 Sudoeste 26 Sudoeste 0 -- -- 50
2019-12-04 15:00:00 16.7 5 Oeste 31 Sudoeste 0 -- -- 50
2019-12-04 14:00:00 17.2 17 Sudoeste 28 Sudoeste 0 -- -- 52
2019-12-04 13:00:00 17.1 12 Sudoeste 26 Oeste 0 -- -- 55
2019-12-04 12:00:00 15.7 12 Sudoeste 23 Sudoeste 0 -- -- 62
2019-12-04 11:00:00 13.7 4 Sudoeste 19 Sudoeste 0 -- -- 67
2019-12-04 10:00:00 11.6 10 Sudoeste 24 Sur 0 -- -- 74
2019-12-04 09:00:00 10.9 7 Sudoeste 21 Sudoeste 0 -- -- 78
2019-12-04 08:00:00 10.1 3 Sudoeste 15 Sudoeste 0 -- -- 81
2019-12-04 07:00:00 9.7 8 Sudoeste 24 Sudoeste 0 -- -- 83
2019-12-04 06:00:00 10.1 12 Sudoeste 18 Sudoeste 0 -- -- 81
2019-12-04 05:00:00 9.3 3 Sudoeste 10 Sudoeste 0 -- -- 85
2019-12-04 04:00:00 10 4 Este 9 Este 0 -- -- 82
2019-12-04 03:00:00 10.6 2 Sur 8 Este 0 -- -- 79
2019-12-04 02:00:00 11.1 0 Calma 3 Sur 0 -- -- 81
2019-12-04 01:00:00 11.1 0 Calma 3 Sur 0 -- -- 80
2019-12-04 00:00:00 11.2 0 Calma 3 Nordeste 0 -- -- 82
2019-12-03 23:00:00 11.2 3 Nordeste 4 Sur 0 -- -- 83
2019-12-03 22:00:00 11.7 2 Nordeste 7 Norte 0 -- -- 81
2019-12-03 21:00:00 11.5 0 Calma 4 Nordeste 0 -- -- 86
2019-12-03 20:00:00 11.7 0 Calma 5 Nordeste 0 -- -- 88
2019-12-03 19:00:00 11.9 4 Nordeste 7 Nordeste 0 -- -- 91
2019-12-03 18:00:00 12.9 3 Nordeste 6 Este 0 -- -- 87
2019-12-03 17:00:00 14.4 3 Este 12 Sur 0 -- -- 81
2019-12-03 16:00:00 17.6 6 Sudoeste 14 Sudoeste 0 -- -- 64
2019-12-03 15:00:00 15.5 7 Sudoeste 19 Sudoeste 0 -- -- 72
2019-12-03 14:00:00 12.7 6 Sudoeste 12 Sudoeste 0 -- -- 84
2019-12-03 13:00:00 13.4 2 Oeste 13 Nordeste 0 -- -- 79
2019-12-03 12:00:00 14.3 5 Nordeste 23 Nordeste 0.2 -- -- 69
2019-12-03 11:00:00 13.1 12 Nordeste 21 Nordeste 0 -- -- 69
2019-12-03 10:00:00 11.6 9 Nordeste 24 Nordeste 0 -- -- 79
2019-12-03 09:00:00 11.2 11 Nordeste 25 Nordeste 0 -- -- 76
2019-12-03 08:00:00 10.5 3 Nordeste 12 Nordeste 0 -- -- 85
2019-12-03 07:00:00 10.4 6 Este 12 Este 0 -- -- 84
2019-12-03 06:00:00 10.4 5 Nordeste 15 Norte 0 -- -- 87
2019-12-03 05:00:00 10.7 8 Norte 23 Nordeste 0 -- -- 85
2019-12-03 04:00:00 10.7 12 Nordeste 21 Nordeste 0 -- -- 86
2019-12-03 03:00:00 10.6 9 Norte 18 Nordeste 0 -- -- 89
2019-12-03 02:00:00 10.4 8 Nordeste 14 Nordeste 0.2 -- -- 96
2019-12-03 01:00:00 10.7 5 Nordeste 17 Nordeste 1.6 -- -- 96
2019-12-03 00:00:00 11 6 Nordeste 22 Este 0.2 -- -- 97
2019-12-02 23:00:00 10.7 5 Norte 19 Nordeste 0.8 -- -- 96
2019-12-02 22:00:00 11.2 5 Nordeste 24 Nordeste 0 -- -- 87
2019-12-02 21:00:00 11.1 10 Nordeste 27 Nordeste 0 -- -- 82
2019-12-02 20:00:00 10.6 6 Nordeste 25 Nordeste 0 -- -- 90
2019-12-02 19:00:00 11.2 15 Nordeste 28 Nordeste 0 -- -- 80
2019-12-02 18:00:00 10.7 15 Nordeste 34 Nordeste 0 -- -- 86
2019-12-02 17:00:00 10.4 8 Norte 22 Nordeste 0.2 -- -- 88
2019-12-02 16:00:00 9.8 9 Nordeste 19 Nordeste 1 -- -- 89
2019-12-02 15:00:00 9.3 4 Nordeste 21 Nordeste 3.6 -- -- 93
2019-12-02 14:00:00 10.1 12 Nordeste 22 Nordeste 0.8 -- -- 95
2019-12-02 13:00:00 10.4 4 Nordeste 10 Nordeste 0.2 -- -- 94
2019-12-02 12:00:00 10 3 Norte 10 Nordeste 0.8 -- -- 95
2019-12-02 11:00:00 10 6 Nordeste 12 Nordeste 1 -- -- 95
2019-12-02 10:00:00 10 5 Nordeste 12 Nordeste 0 -- -- 93
2019-12-02 09:00:00 9.8 8 Nordeste 14 Nordeste 0 -- -- 97
2019-12-02 08:00:00 10.1 3 Nordeste 10 Este 0 -- -- 96
2019-12-02 07:00:00 10.2 5 Nordeste 10 Nordeste 0 -- -- 94
2019-12-02 06:00:00 9.6 3 Nordeste 8 Este 0 -- -- 94
2019-12-02 05:00:00 9.5 4 Nordeste 12 Este 0 -- -- 92
2019-12-02 04:00:00 9 6 Nordeste 9 Nordeste 0 -- -- 93
2019-12-02 03:00:00 9.3 3 Sudeste 6 Este 0 -- -- 91
2019-12-02 02:00:00 9.7 3 Nordeste 5 Nordeste 0 -- -- 91
2019-12-02 01:00:00 10.1 0 Calma 5 Sudoeste 0 -- -- 87
2019-12-02 00:00:00 10.5 0 Calma 6 Sudoeste 0 -- -- 86
2019-12-01 23:00:00 10.9 5 Sudoeste 12 Sudoeste 0 -- -- 83
2019-12-01 22:00:00 10.1 6 Sur 13 Oeste 0 -- -- 86
2019-12-01 21:00:00 9.8 3 Sudoeste 13 Oeste 0 -- -- 91
2019-12-01 20:00:00 11.3 2 Sudoeste 8 Sudoeste 0 -- -- 89
2019-12-01 19:00:00 12 2 Sudoeste 9 Sudoeste 0 -- -- 92
2019-12-01 18:00:00 12.4 6 Sudoeste 21 Sudoeste 0 -- -- 86
2019-12-01 17:00:00 13.7 12 Sudoeste 36 Sudoeste 0 -- -- 78
2019-12-01 16:00:00 17.2 11 Sudoeste 33 Sudoeste 0 -- -- 53
2019-12-01 15:00:00 19.1 11 Sudoeste 33 Oeste 0 -- -- 49
2019-12-01 14:00:00 18.5 15 Sudoeste 32 Sudoeste 0 -- -- 44
2019-12-01 13:00:00 16.3 7 Sur 17 Nordeste 0 -- -- 58
2019-12-01 12:00:00 16.2 8 Sudoeste 17 Sur 0 -- -- 48
2019-12-01 11:00:00 13.7 5 Nordeste 21 Sudoeste 0 -- -- 76
2019-12-01 10:00:00 13 6 Sudoeste 31 Sudoeste 0 -- -- 67
2019-12-01 09:00:00 12.7 10 Sudoeste 20 Sur 0 -- -- 68
2019-12-01 08:00:00 12.3 9 Este 16 Nordeste 0 -- -- 86
2019-12-01 07:00:00 14.4 5 Este 36 Oeste 0 -- -- 68
2019-12-01 06:00:00 13.6 6 Sudoeste 27 Sudoeste 0 -- -- 72
2019-12-01 05:00:00 13.6 4 Sur 21 Sudoeste 0 -- -- 79
2019-12-01 04:00:00 14 5 Sur 16 Sudoeste 0 -- -- 82
2019-12-01 03:00:00 14 6 Sur 16 Sur 0 -- -- 79
2019-12-01 02:00:00 13.3 4 Sudoeste 15 Sur 0 -- -- 78
2019-12-01 01:00:00 11.7 5 Sur 11 Sur 0 -- -- 79
2019-12-01 00:00:00 12.3 5 Nordeste 12 Nordeste 0 -- -- 74
2019-11-30 23:00:00 12.5 4 Nordeste 10 Este 0 -- -- 81
2019-11-30 22:00:00 12.8 5 Nordeste 9 Nordeste 0 -- -- 75
2019-11-30 21:00:00 13.8 5 Este 10 Nordeste 0 -- -- 72
2019-11-30 20:00:00 13.4 4 Oeste 10 Este 0 -- -- 72
2019-11-30 19:00:00 14.2 4 Sur 12 Sur 0 -- -- 72
2019-11-30 18:00:00 17.3 0 Calma 6 Sudoeste 0 -- -- 69
2019-11-30 17:00:00 20 4 Sudoeste 13 Sudoeste 0 -- -- 61
2019-11-30 16:00:00 20.7 7 Sudoeste 15 Sudoeste 0 -- -- 60
2019-11-30 15:00:00 20.6 7 Sudoeste 13 Sudoeste 0 -- -- 60
2019-11-30 14:00:00 19.2 7 Sudoeste 12 Sudoeste 0 -- -- 60
2019-11-30 13:00:00 18.4 8 Sudoeste 12 Sudoeste 0 -- -- 62
2019-11-30 12:00:00 17.2 3 Sudoeste 5 Sudoeste 0 -- -- 67
2019-11-30 11:00:00 15.7 2 Sudoeste 5 Sudoeste 0 -- -- 70
2019-11-30 10:00:00 12.4 0 Calma 2 Este 0 -- -- 80
2019-11-30 09:00:00 11 0 Calma 2 Sudeste 0 -- -- 83
2019-11-30 08:00:00 10.9 2 Nordeste 6 Este 0 -- -- 75
2019-11-30 07:00:00 11.3 0 Calma 5 Nordeste 0 -- -- 76
2019-11-30 06:00:00 11.7 0 Calma 6 Este 0 -- -- 74
2019-11-30 05:00:00 12 5 Nordeste 7 Este 0 -- -- 73
2019-11-30 04:00:00 11.9 0 Calma 3 Nordeste 0 -- -- 73
2019-11-30 03:00:00 11.9 0 Calma 4 Nordeste 0 -- -- 73
2019-11-30 02:00:00 12.6 0 Calma 5 Sudeste 0 -- -- 69
2019-11-30 01:00:00 13.6 2 Sudeste 5 Nordeste 0 -- -- 67
2019-11-30 00:00:00 13.9 5 Nordeste 6 Nordeste 0 -- -- 64
2019-11-29 23:00:00 13.6 0 Calma 3 Este 0 -- -- 68
2019-11-29 22:00:00 13.8 2 Este 4 Sudeste 0 -- -- 70
2019-11-29 21:00:00 14.3 3 Nordeste 8 Este 0 -- -- 71
2019-11-29 20:00:00 15 4 Nordeste 8 Nordeste 0 -- -- 69
2019-11-29 19:00:00 15.2 4 Nordeste 8 Nordeste 0 -- -- 68
2019-11-29 18:00:00 18.4 0 Calma 5 Sudoeste 0 -- -- 59
2019-11-29 17:00:00 22.3 4 Sudoeste 9 Sudoeste 0 -- -- 49
2019-11-29 16:00:00 22.3 4 Sudoeste 13 Sudoeste 0 -- -- 44
2019-11-29 15:00:00 22.3 8 Sudoeste 15 Sudoeste 0 -- -- 45
2019-11-29 14:00:00 21.6 6 Sur 11 Sudoeste 0 -- -- 45
2019-11-29 13:00:00 20.5 5 Sudoeste 10 Sudoeste 0 -- -- 49
2019-11-29 12:00:00 19 4 Sudoeste 6 Sudoeste 0 -- -- 50
2019-11-29 11:00:00 17.2 2 Sudeste 9 Este 0 -- -- 62
2019-11-29 10:00:00 14.4 6 Este 14 Nordeste 0 -- -- 60
2019-11-29 09:00:00 14.4 10 Nordeste 22 Nordeste 0 -- -- 60
2019-11-29 08:00:00 13.7 7 Norte 19 Norte 0 -- -- 62
2019-11-29 07:00:00 12.3 8 Nordeste 15 Este 0 -- -- 65
2019-11-29 06:00:00 11.5 5 Nordeste 10 Nordeste 0 -- -- 66
2019-11-29 05:00:00 11.5 6 Este 9 Este 0 -- -- 68
2019-11-29 04:00:00 11.5 4 Nordeste 10 Nordeste 0 -- -- 70
2019-11-29 03:00:00 12.1 6 Nordeste 13 Este 0 -- -- 69
2019-11-29 02:00:00 12.4 8 Este 14 Nordeste 0 -- -- 68
2019-11-29 01:00:00 12.4 7 Nordeste 15 Nordeste 0 -- -- 70
2019-11-29 00:00:00 12.6 8 Nordeste 14 Nordeste 0 -- -- 72
2019-11-28 23:00:00 11.6 5 Nordeste 8 Nordeste 0 -- -- 79
2019-11-28 22:00:00 12.1 4 Nordeste 8 Nordeste 0 -- -- 80
2019-11-28 21:00:00 12.1 5 Nordeste 8 Este 0 -- -- 79
2019-11-28 20:00:00 12.6 4 Nordeste 6 Nordeste 0 -- -- 78
2019-11-28 19:00:00 13.9 2 Norte 6 Nordeste 0 -- -- 73
2019-11-28 18:00:00 17.4 0 Calma 5 Nordeste 0 -- -- 62
2019-11-28 17:00:00 19.9 4 Sudoeste 10 Sur 0 -- -- 55
2019-11-28 16:00:00 21.1 3 Sur 8 Oeste 0 -- -- 49
2019-11-28 15:00:00 20.3 6 Sudoeste 12 Sur 0 -- -- 55
2019-11-28 14:00:00 18.7 2 Sudoeste 12 Sudoeste 0 -- -- 59
2019-11-28 13:00:00 18 4 Sudoeste 12 Sudoeste 0 -- -- 59
2019-11-28 12:00:00 17 5 Nordeste 11 Nordeste 0 -- -- 58
2019-11-28 11:00:00 15.4 3 Este 12 Nordeste 0 -- -- 57
2019-11-28 10:00:00 12.6 5 Este 10 Nordeste 0 -- -- 72
2019-11-28 09:00:00 12.4 6 Nordeste 19 Nordeste 0 -- -- 71
2019-11-28 08:00:00 11.5 13 Nordeste 19 Norte 0 -- -- 74
2019-11-28 07:00:00 10.6 2 Nordeste 9 Nordeste 0 -- -- 77
2019-11-28 06:00:00 10.5 2 Nordeste 8 Este 0 -- -- 77
2019-11-28 05:00:00 11.1 3 Nordeste 12 Nordeste 0 -- -- 74
2019-11-28 04:00:00 11 6 Nordeste 14 Nordeste 0 -- -- 73
2019-11-28 03:00:00 11 4 Nordeste 8 Nordeste 0 -- -- 79
2019-11-28 02:00:00 12 2 Sudeste 10 Norte 0 -- -- 75
2019-11-28 01:00:00 12.1 2 Norte 9 Sudoeste 0 -- -- 74
2019-11-28 00:00:00 13 3 Oeste 12 Norte 0 -- -- 73
2019-11-27 23:00:00 13.2 0 Calma 8 Nordeste 0 -- -- 71
2019-11-27 22:00:00 13.4 4 Sudoeste 14 Sudoeste 0 -- -- 78
2019-11-27 21:00:00 13.6 0 Calma 11 Sudoeste 0 -- -- 76
2019-11-27 20:00:00 14.9 6 Sudoeste 12 Sudoeste 0 -- -- 70
2019-11-27 19:00:00 15.8 5 Sudoeste 23 Sudoeste 0 -- -- 66
2019-11-27 18:00:00 17.8 7 Sudoeste 26 Sudoeste 0 -- -- 61
2019-11-27 17:00:00 20.2 10 Sudoeste 26 Sudoeste 0 -- -- 52
2019-11-27 16:00:00 21.9 9 Sudoeste 23 Sudoeste 0 -- -- 51
2019-11-27 15:00:00 21 8 Sudoeste 31 Sudoeste 0 -- -- 51
2019-11-27 14:00:00 21.3 11 Sudoeste 34 Sudoeste 0 -- -- 49
2019-11-27 06:00:00 -- -- -- -- -- -- -- -- --
2019-11-27 05:00:00 -- -- -- -- -- -- -- -- --
2019-11-27 04:00:00 14.7 13 Sudoeste 29 Sudoeste 0 -- -- 88
2019-11-27 03:00:00 14.8 13 Sudoeste 27 Oeste 0 -- -- 84
2019-11-27 02:00:00 15.1 13 Sudoeste 33 Sudoeste 0 -- -- 79
2019-11-27 01:00:00 15.2 10 Sudoeste 33 Sudoeste 0 -- -- 77
2019-11-27 00:00:00 15.1 9 Sudoeste 36 Sudoeste 0 -- -- 77
2019-11-26 23:00:00 14.6 10 Sudoeste 27 Oeste 0 -- -- 74
2019-11-26 22:00:00 15.1 8 Sudoeste 23 Sudoeste 0 -- -- 72
2019-11-26 21:00:00 15.4 13 Sudoeste 28 Sudoeste 0 -- -- 71
2019-11-26 20:00:00 16.1 18 Sudoeste 34 Sudoeste 0 -- -- 68
2019-11-26 19:00:00 16.5 15 Sudoeste 27 Sudoeste 0 -- -- 70
2019-11-26 18:00:00 17.6 14 Sudoeste 32 Sudoeste 0 -- -- 68
2019-11-26 17:00:00 19.2 16 Sudoeste 27 Sudoeste 0 -- -- 68
2019-11-26 16:00:00 21.5 10 Sudoeste 18 Sudoeste 0 -- -- 61
2019-11-26 15:00:00 23.5 9 Sudoeste 27 Sudoeste 0 -- -- 56
2019-11-26 14:00:00 20.8 5 Sudoeste 16 Sudoeste 0 -- -- 68
2019-11-26 13:00:00 21 4 Oeste 24 Sudoeste 0 -- -- 66
2019-11-26 12:00:00 20.2 9 Sudoeste 28 Sudoeste 0 -- -- 66
2019-11-26 11:00:00 18.7 8 Sudoeste 16 Sudoeste 0 -- -- 70
2019-11-26 10:00:00 15.4 2 Sudoeste 8 Nordeste 0 -- -- 83
2019-11-26 09:00:00 14.2 4 Sudeste 10 Nordeste 0 -- -- 84
2019-11-26 08:00:00 12.8 3 Este 9 Nordeste 0 -- -- 86
2019-11-26 07:00:00 13.1 3 Este 9 Sur 0 -- -- 81
2019-11-26 06:00:00 12.6 4 Sudeste 11 Sur 0 -- -- 79
2019-11-26 05:00:00 13.3 4 Nordeste 13 Sudeste 0 -- -- 78
2019-11-26 04:00:00 14.2 4 Este 11 Nordeste 0 -- -- 77
2019-11-26 03:00:00 14.1 4 Sudeste 10 Sur 0 -- -- 76
2019-11-26 02:00:00 14.1 2 Sudoeste 12 Sur 0 -- -- 84
2019-11-26 01:00:00 14 2 Este 8 Sudoeste 0 -- -- 92
2019-11-26 00:00:00 14 2 Oeste 8 Sudoeste 0 -- -- 91
2019-11-25 23:00:00 14 0 Calma 5 Sudoeste 0 -- -- 91
2019-11-25 22:00:00 14.2 0 Calma 6 Oeste 0 -- -- 89
2019-11-25 21:00:00 14.6 0 Calma 7 Sudoeste 0 -- -- 87
2019-11-25 20:00:00 15 2 Sudoeste 13 Oeste 0 -- -- 84
2019-11-25 19:00:00 15.9 9 Sudoeste 19 Sudoeste 0 -- -- 81
2019-11-25 18:00:00 16.8 14 Sudoeste 27 Sudoeste 0 -- -- 76
2019-11-25 17:00:00 18 12 Sudoeste 30 Sudoeste 0 -- -- 71
2019-11-25 16:00:00 20.6 15 Sudoeste 27 Oeste 0 -- -- 64
2019-11-25 15:00:00 19.3 13 Sudoeste 28 Sudoeste 0 -- -- 68
2019-11-25 14:00:00 20 14 Sudoeste 31 Sudoeste 0 -- -- 64
2019-11-25 13:00:00 19 11 Sudoeste 28 Sudoeste 0 -- -- 68
2019-11-25 12:00:00 17.9 13 Sudoeste 27 Sudoeste 0 -- -- 70
2019-11-25 11:00:00 16.7 12 Sudoeste 30 Sudoeste 0 -- -- 71
2019-11-25 10:00:00 14.7 10 Sudoeste 26 Sudoeste 0 -- -- 78
2019-11-25 09:00:00 12.5 3 Noroeste 11 Sudoeste 0 -- -- 84
2019-11-25 08:00:00 12 3 Sur 11 Nordeste 0 -- -- 84
2019-11-25 07:00:00 12.1 4 Este 10 Sur 0 -- -- 80
2019-11-25 06:00:00 11.8 4 Sur 13 Sur 0 -- -- 80
2019-11-25 05:00:00 10.1 5 Este 13 Nordeste 0 -- -- 77
2019-11-25 04:00:00 9.9 5 Nordeste 10 Nordeste 0 -- -- 73
2019-11-25 03:00:00 9.5 2 Nordeste 8 Este 0 -- -- 74
2019-11-25 02:00:00 9.5 4 Nordeste 9 Este 0 -- -- 73
2019-11-25 01:00:00 9.5 3 Nordeste 8 Nordeste 0 -- -- 71
2019-11-25 00:00:00 10.1 5 Nordeste 6 Nordeste 0 -- -- 72
2019-11-24 23:00:00 11.3 3 Sudeste 21 Nordeste 0 -- -- 64
2019-11-24 22:00:00 10.5 3 Nordeste 12 Sur 0 -- -- 72
2019-11-24 21:00:00 10 3 Sur 11 Sur 0 -- -- 75
2019-11-24 20:00:00 10.3 2 Sur 9 Sur 0 -- -- 71
2019-11-24 19:00:00 11.5 3 Sur 8 Sur 0 -- -- 67
2019-11-24 18:00:00 14 5 Este 15 Sudoeste 0 -- -- 52
2019-11-24 17:00:00 17.6 7 Sudoeste 19 Sudoeste 0 -- -- 45
2019-11-24 16:00:00 18.3 8 Sudoeste 26 Sur 0 -- -- 44
2019-11-24 15:00:00 18.4 10 Sudoeste 24 Sudoeste 0 -- -- 40
2019-11-24 14:00:00 16.8 9 Sudoeste 26 Sudoeste 0 -- -- 44
2019-11-24 13:00:00 16.4 8 Sudoeste 23 Sudoeste 0 -- -- 46
2019-11-24 12:00:00 15.2 9 Sudoeste 21 Oeste 0 -- -- 52
2019-11-24 11:00:00 13.2 5 Sudeste 20 Sudoeste 0 -- -- 55
2019-11-24 10:00:00 10.6 5 Sudoeste 18 Sudoeste 0 -- -- 65
2019-11-24 09:00:00 9.2 5 Sudoeste 10 Sudoeste 0 -- -- 71
2019-11-24 08:00:00 8.5 2 Sudeste 9 Sur 0 -- -- 70
2019-11-24 07:00:00 8.5 4 Sudeste 9 Sudeste 0 -- -- 69
2019-11-24 06:00:00 8.6 2 Este 7 Sudeste 0 -- -- 72
2019-11-24 05:00:00 9.1 4 Nordeste 12 Este 0 -- -- 69
2019-11-24 04:00:00 9.7 6 Sudeste 10 Sur 0 -- -- 67
2019-11-24 03:00:00 9 3 Sudeste 7 Sudeste 0 -- -- 74
2019-11-24 02:00:00 8.5 0 Calma 6 Nordeste 0 -- -- 78
2019-11-24 01:00:00 9.8 4 Nordeste 15 Nordeste 0 -- -- 72
2019-11-24 00:00:00 10.8 10 Nordeste 39 Sudoeste 0 -- -- 70
2019-11-23 23:00:00 10.1 10 Sudoeste 21 Oeste 0 -- -- 72
2019-11-23 22:00:00 9.9 2 Sudoeste 8 Sudoeste 0 -- -- 76
2019-11-23 21:00:00 10.9 0 Calma 17 Noroeste 0 -- -- 67
2019-11-23 20:00:00 12 9 Sudoeste 22 Sudoeste 0 -- -- 64
2019-11-23 19:00:00 12.4 6 Sudoeste 23 Sudoeste 0 -- -- 59
2019-11-23 18:00:00 13.5 12 Sudoeste 31 Oeste 0 -- -- 57
2019-11-23 17:00:00 15.8 15 Sudoeste 34 Sudoeste 0 -- -- 50
2019-11-23 16:00:00 17.6 11 Sudoeste 32 Sudoeste 0 -- -- 49
2019-11-23 15:00:00 17.3 10 Sudoeste 41 Sudoeste 0 -- -- 47
2019-11-23 14:00:00 17.2 15 Sudoeste 35 Sudoeste 0 -- -- 50
2019-11-23 13:00:00 15.5 9 Sudoeste 39 Sudoeste 0 -- -- 58
2019-11-23 12:00:00 13 8 Sudoeste 36 Sudoeste 0 -- -- 62
2019-11-23 11:00:00 13 12 Sudoeste 43 Sudoeste 0 -- -- 66
2019-11-23 10:00:00 11.9 14 Sudoeste 45 Sudoeste 0 -- -- 67
2019-11-23 09:00:00 11.5 19 Oeste 53 Oeste 0 -- -- 71
2019-11-23 08:00:00 11.4 11 Sudoeste 39 Sudoeste 0 -- -- 77
2019-11-23 07:00:00 12.1 14 Sudoeste 42 Sudoeste 0 -- -- 80
2019-11-23 06:00:00 12.4 21 Sudoeste 51 Sudoeste 0 -- -- 71
2019-11-23 05:00:00 12.6 22 Sudoeste 57 Sudoeste 0 -- -- 66
2019-11-23 04:00:00 12.8 27 Sudoeste 63 Oeste 0.2 -- -- 67
2019-11-23 03:00:00 13.1 27 Sudoeste 72 Sudoeste 0 -- -- 69
2019-11-23 02:00:00 13.5 28 Sudoeste 58 Oeste 0 -- -- 69
2019-11-23 01:00:00 13.6 23 Oeste 64 Oeste 0 -- -- 70
2019-11-23 00:00:00 13.9 17 Oeste 50 Oeste 0 -- -- 68
2019-11-22 23:00:00 13.5 18 Sudoeste 60 Noroeste 0 -- -- 68
2019-11-22 22:00:00 14.2 19 Oeste 62 Sudoeste 0 -- -- 82
2019-11-22 21:00:00 15.1 17 Oeste 45 Sudoeste 11.2 -- -- 98
2019-11-22 20:00:00 15.4 16 Sudoeste 54 Sudoeste 3 -- -- 97
2019-11-22 19:00:00 15.6 27 Sudoeste 72 Sudoeste 0.4 -- -- 93
2019-11-22 18:00:00 15.5 30 Sudoeste 77 Sudoeste 0.2 -- -- 94
2019-11-22 17:00:00 15.3 27 Sudoeste 67 Sudoeste 0 -- -- 94
2019-11-22 16:00:00 14.1 23 Sudoeste 53 Sudoeste 0.8 -- -- 100
2019-11-22 15:00:00 14 19 Sudoeste 31 Sudoeste 1.8 -- -- 100
2019-11-22 14:00:00 13.7 24 Sudoeste 40 Sudoeste 1.2 -- -- 100
2019-11-22 13:00:00 13.6 18 Sudoeste 33 Sudoeste 0.4 -- -- 100
2019-11-22 12:00:00 13.4 16 Sudoeste 32 Sudoeste 2.2 -- -- 100
2019-11-22 11:00:00 13.3 16 Sudoeste 31 Sudoeste 0.2 -- -- 100
2019-11-22 10:00:00 13.3 17 Sudoeste 28 Sudoeste 1.6 -- -- 100
2019-11-22 09:00:00 13.1 14 Sudoeste 24 Sudoeste 2.4 -- -- 100
2019-11-22 08:00:00 12.8 4 Sudoeste 18 Sudoeste 4.8 -- -- 100
2019-11-22 07:00:00 12.8 5 Sudoeste 19 Sudoeste 2.6 -- -- 100
2019-11-22 06:00:00 12.8 12 Sudoeste 21 Sudoeste 0.6 -- -- 100
2019-11-22 05:00:00 12.8 12 Sudoeste 20 Sudoeste 2 -- -- 100
2019-11-22 04:00:00 12.5 9 Sudoeste 17 Sudoeste 1.8 -- -- 100
2019-11-22 03:00:00 12.4 3 Sudoeste 8 Sudoeste 1.2 -- -- 100
2019-11-22 02:00:00 12.3 5 Sudoeste 19 Sudoeste 0.6 -- -- 100
2019-11-22 01:00:00 12 5 Sudoeste 12 Sudoeste 1.6 -- -- 100
2019-11-22 00:00:00 11.9 0 Calma 6 Sudoeste 0.8 -- -- 99
2019-11-21 23:00:00 11.9 5 Sudoeste 10 Sudoeste 0.2 -- -- 100
2019-11-21 22:00:00 11.9 4 Sudoeste 9 Sur 0.2 -- -- 100
2019-11-21 21:00:00 12 3 Sudoeste 6 Sudoeste 0.2 -- -- 100
2019-11-21 20:00:00 12.1 4 Sudoeste 14 Sudoeste 0 -- -- 100
2019-11-21 19:00:00 12.2 8 Sudoeste 13 Sur 0.4 -- -- 100
2019-11-21 18:00:00 12.3 8 Sudoeste 19 Sur 0.6 -- -- 100
2019-11-21 17:00:00 12.4 7 Sudoeste 18 Sudoeste 1.8 -- -- 99
2019-11-21 16:00:00 12.6 11 Sudoeste 28 Sudoeste 3.2 -- -- 99
2019-11-21 15:00:00 12.6 11 Sudoeste 21 Sudoeste 0.6 -- -- 99
2019-11-21 14:00:00 12.7 6 Sudoeste 18 Sudoeste 0 -- -- 99
2019-11-21 13:00:00 12.3 7 Sudoeste 27 Sudoeste 2 -- -- 100
2019-11-21 12:00:00 11.7 4 Oeste 9 Oeste 1.8 -- -- 99
2019-11-21 11:00:00 11.3 0 Calma 9 Sudoeste 1.2 -- -- 99
2019-11-21 10:00:00 10.9 0 Calma 6 Nordeste 2.4 -- -- 99
2019-11-21 09:00:00 10.7 0 Calma 5 Nordeste 2.2 -- -- 99
2019-11-21 08:00:00 10.6 0 Calma 8 Sur 4 -- -- 99
2019-11-21 07:00:00 10.3 4 Este 6 Nordeste 4 -- -- 99
2019-11-21 06:00:00 10.1 3 Nordeste 5 Sur 3.6 -- -- 98
2019-11-21 05:00:00 10.1 0 Calma 6 Nordeste 3.4 -- -- 98
2019-11-21 04:00:00 9.9 0 Calma 3 Nordeste 1.8 -- -- 98
2019-11-21 03:00:00 10 3 Oeste 10 Sur 0.2 -- -- 96
2019-11-21 02:00:00 9.3 2 Sudoeste 19 Oeste 0 -- -- 96
2019-11-21 01:00:00 9.4 3 Oeste 12 Oeste 0 -- -- 96
2019-11-21 00:00:00 9.3 0 Calma 6 Oeste 0 -- -- 96
2019-11-20 23:00:00 9.5 0 Calma 3 Sudoeste 0 -- -- 98
2019-11-20 22:00:00 9.7 0 Calma 8 Sur 0 -- -- 95
2019-11-20 21:00:00 10.1 4 Sudoeste 13 Sudoeste 0 -- -- 97
2019-11-20 20:00:00 10 7 Sudoeste 18 Oeste 0 -- -- 97
2019-11-20 19:00:00 9.9 11 Sudoeste 31 Sudoeste 0.2 -- -- 96
2019-11-20 18:00:00 9.8 13 Sudoeste 23 Sudoeste 0.4 -- -- 97
2019-11-20 17:00:00 10.1 10 Sudoeste 23 Sudoeste 0.4 -- -- 97
2019-11-20 16:00:00 10.2 12 Sudoeste 25 Sudoeste 0.2 -- -- 97
2019-11-20 15:00:00 10.5 7 Sudoeste 35 Sudoeste 0.2 -- -- 96
2019-11-20 14:00:00 10.4 10 Sudoeste 24 Oeste 0.2 -- -- 96
2019-11-20 13:00:00 10.2 7 Sudoeste 18 Sudoeste 1 -- -- 96
2019-11-20 12:00:00 10.1 3 Sudoeste 6 Oeste 1.6 -- -- 93
2019-11-20 11:00:00 10.3 3 Oeste 9 Oeste 0 -- -- 90
2019-11-20 10:00:00 11.1 7 Sudoeste 13 Sudoeste 0 -- -- 71
2019-11-20 09:00:00 8.9 4 Sudoeste 10 Sudoeste 0 -- -- 74
2019-11-20 08:00:00 6.9 4 Sudoeste 7 Sudoeste 0 -- -- 64
2019-11-20 07:00:00 6.3 0 Calma 4 Nordeste 0 -- -- 76
2019-11-20 06:00:00 6.2 0 Calma 2 Sudeste 0 -- -- 73
2019-11-20 05:00:00 6.9 3 Este 5 Este 0 -- -- 77
2019-11-20 04:00:00 7 0 Calma 2 Sudeste 0 -- -- 78
2019-11-20 03:00:00 8.5 0 Calma 2 Sudeste 0 -- -- 72
2019-11-20 02:00:00 8.9 0 Calma 3 Nordeste 0 -- -- 70
2019-11-20 01:00:00 9.5 2 Este 4 Sudeste 0 -- -- 67
2019-11-20 00:00:00 10 2 Nordeste 4 Sudoeste 0 -- -- 66
2019-11-19 23:00:00 10.7 2 Nordeste 3 Nordeste 0 -- -- 64
2019-11-19 22:00:00 11.4 0 Calma 11 Norte 0 -- -- 63
2019-11-19 21:00:00 11.3 2 Nordeste 9 Nordeste 0 -- -- 62
2019-11-19 20:00:00 10.8 0 Calma 2 Sur 0 -- -- 66
2019-11-19 19:00:00 11.4 0 Calma 18 Norte 0 -- -- 65
2019-11-19 18:00:00 12 9 Nordeste 16 Nordeste 0 -- -- 65
2019-11-19 17:00:00 13.7 5 Nordeste 13 Sudoeste 0 -- -- 62
2019-11-19 16:00:00 15.7 3 Sudeste 18 Sudoeste 0 -- -- 46
2019-11-19 15:00:00 17 7 Sudoeste 19 Sudoeste 0 -- -- 40
2019-11-19 14:00:00 16.1 3 Sudoeste 13 Sudoeste 0 -- -- 39
2019-11-19 13:00:00 15.2 6 Sur 15 Sudoeste 0 -- -- 41
2019-11-19 12:00:00 14.8 9 Sudoeste 17 Sudoeste 0 -- -- 44
2019-11-19 11:00:00 13.4 3 Sudoeste 4 Sudoeste 0 -- -- 43
2019-11-19 10:00:00 9.7 0 Calma 4 Nordeste 0 -- -- 55
2019-11-19 09:00:00 8.3 0 Calma 8 Nordeste 0 -- -- 56
2019-11-19 08:00:00 8.1 4 Nordeste 6 Nordeste 0 -- -- 54
2019-11-19 07:00:00 7.6 3 Nordeste 5 Nordeste 0 -- -- 59
2019-11-19 06:00:00 7.8 4 Nordeste 8 Nordeste 0 -- -- 57
2019-11-19 05:00:00 8.1 5 Este 10 Nordeste 0 -- -- 55
2019-11-19 04:00:00 8.9 2 Sur 15 Norte 0 -- -- 54
2019-11-19 03:00:00 8.2 4 Nordeste 8 Norte 0 -- -- 55
2019-11-19 02:00:00 7.4 0 Calma 12 Nordeste 0 -- -- 59
2019-11-19 01:00:00 8 6 Nordeste 9 Nordeste 0 -- -- 58
2019-11-19 00:00:00 8.4 3 Nordeste 8 Este 0 -- -- 59
2019-11-18 23:00:00 8.4 5 Nordeste 6 Nordeste 0 -- -- 57
2019-11-18 22:00:00 8.8 2 Sudeste 8 Nordeste 0 -- -- 55
2019-11-18 21:00:00 8.6 2 Este 8 Nordeste 0 -- -- 55
2019-11-18 20:00:00 9.6 0 Calma 15 Nordeste 0 -- -- 56
2019-11-18 19:00:00 11.3 2 Este 13 Este 0 -- -- 51
2019-11-18 18:00:00 14 3 Este 12 Nordeste 0 -- -- 46
2019-11-18 17:00:00 14.5 11 Norte 28 Norte 0 -- -- 44
2019-11-18 16:00:00 15.2 14 Norte 31 Nordeste 0 -- -- 41
2019-11-18 15:00:00 15.7 5 Nordeste 14 Sudeste 0 -- -- 41
2019-11-18 14:00:00 15.3 5 Este 22 Nordeste 0 -- -- 45
2019-11-18 13:00:00 15.9 4 Sur 19 Noroeste 0 -- -- 47
2019-11-18 12:00:00 13.2 8 Noroeste 47 Norte 0 -- -- 46
2019-11-18 11:00:00 11.8 11 Norte 44 Nordeste 0 -- -- 56
2019-11-18 10:00:00 10.8 21 Nordeste 43 Nordeste 0 -- -- 56
2019-11-18 09:00:00 10.1 19 Nordeste 43 Nordeste 0 -- -- 58
2019-11-18 08:00:00 9.7 14 Nordeste 32 Este 0 -- -- 59
2019-11-18 07:00:00 11.7 12 Sudoeste 37 Oeste 0 -- -- 38
2019-11-18 06:00:00 12.3 7 Oeste 46 Sudoeste 0 -- -- 64
2019-11-18 05:00:00 13.2 13 Sudoeste 42 Sudoeste 0 -- -- 69
2019-11-18 04:00:00 13.3 11 Oeste 40 Sudoeste 0 -- -- 80
2019-11-18 03:00:00 13 16 Sudoeste 52 Sudoeste 0 -- -- 85
2019-11-18 02:00:00 13.7 22 Sudoeste 50 Sudoeste 0 -- -- 75
2019-11-18 01:00:00 13.4 22 Sudoeste 42 Sudoeste 0 -- -- 80
2019-11-18 00:00:00 13.5 14 Sudoeste 30 Sudoeste 0 -- -- 79
2019-11-17 23:00:00 13.8 17 Sudoeste 42 Sudoeste 0 -- -- 75
2019-11-17 22:00:00 13.2 13 Sudoeste 34 Sudoeste 0 -- -- 86
2019-11-17 21:00:00 13.5 13 Sudoeste 31 Sudoeste 0 -- -- 82
2019-11-17 20:00:00 13.7 13 Sudoeste 29 Sudoeste 0 -- -- 79
2019-11-17 19:00:00 13.3 12 Sudoeste 28 Sudoeste 0 -- -- 74
2019-11-17 18:00:00 13.4 8 Sudoeste 22 Sudoeste 0 -- -- 76
2019-11-17 17:00:00 13 10 Sudoeste 27 Sudoeste 0 -- -- 83
2019-11-17 16:00:00 13.5 14 Sudoeste 39 Sudoeste 0 -- -- 76
2019-11-17 15:00:00 13.4 14 Sudoeste 35 Sudoeste 0 -- -- 72
2019-11-17 14:00:00 13.2 19 Sudoeste 38 Sudoeste 0 -- -- 71
2019-11-17 13:00:00 13.5 14 Sudoeste 40 Sudoeste 0 -- -- 67
2019-11-17 12:00:00 12.9 11 Sudoeste 30 Sudoeste 0 -- -- 63
2019-11-17 11:00:00 12.3 14 Sudoeste 32 Sudoeste 0 -- -- 58
2019-11-17 10:00:00 10.4 15 Sudoeste 27 Sudoeste 0 -- -- 49
2019-11-17 09:00:00 9.5 13 Sudoeste 28 Sudoeste 0 -- -- 46
2019-11-17 08:00:00 9.3 17 Sudoeste 30 Sudoeste 0 -- -- 45
2019-11-17 07:00:00 8.8 9 Sudoeste 31 Sudoeste 0 -- -- 48
2019-11-17 06:00:00 8.1 6 Sudoeste 17 Sur 0 -- -- 52
2019-11-17 05:00:00 7.8 5 Sudoeste 13 Sur 0 -- -- 55
2019-11-17 04:00:00 7.5 6 Sudoeste 13 Sur 0 -- -- 57
2019-11-17 03:00:00 6.3 0 Calma 6 Sudeste 0 -- -- 61
2019-11-17 02:00:00 6.7 0 Calma 10 Sur 0 -- -- 59
2019-11-17 01:00:00 7.6 3 Sur 9 Este 0 -- -- 56
2019-11-17 00:00:00 9.1 8 Este 17 Este 0 -- -- 50
2019-11-16 23:00:00 8.9 4 Sur 15 Norte 0 -- -- 51
2019-11-16 22:00:00 9.7 7 Noroeste 26 Sudoeste 0 -- -- 46
2019-11-16 21:00:00 10.4 4 Noroeste 27 Norte 0 -- -- 41
2019-11-16 20:00:00 10.7 5 Norte 23 Norte 0 -- -- 38
2019-11-16 19:00:00 11.2 10 Norte 32 Noroeste 0 -- -- 32
2019-11-16 18:00:00 13.4 6 Noroeste 21 Norte 0 -- -- 38
2019-11-16 17:00:00 16 6 Sudoeste 18 Sudoeste 0 -- -- 35
2019-11-16 16:00:00 16.7 9 Sudoeste 18 Oeste 0 -- -- 32
2019-11-16 15:00:00 15.1 4 Este 16 Sur 0 -- -- 37
2019-11-16 14:00:00 15 7 Sur 17 Sur 0 -- -- 35
2019-11-16 13:00:00 13.9 5 Sur 15 Sudoeste 0 -- -- 42
2019-11-16 12:00:00 12.2 4 Este 12 Sur 0 -- -- 42
2019-11-16 11:00:00 11.3 5 Sudeste 13 Sudeste 0 -- -- 39
2019-11-16 10:00:00 8.5 2 Sur 19 Nordeste 0 -- -- 46
2019-11-16 09:00:00 7.1 9 Nordeste 16 Nordeste 0 -- -- 52
2019-11-16 08:00:00 6.4 6 Norte 13 Sudeste 0 -- -- 50
2019-11-16 07:00:00 6 0 Calma 15 Este 0 -- -- 57
2019-11-16 06:00:00 6.6 3 Nordeste 18 Norte 0 -- -- 55
2019-11-16 05:00:00 8.5 12 Norte 23 Norte 0 -- -- 46
2019-11-16 04:00:00 7.7 8 Norte 20 Norte 0 -- -- 51
2019-11-16 03:00:00 8.6 7 Norte 18 Norte 0 -- -- 50
2019-11-16 02:00:00 7.4 4 Sudoeste 16 Noroeste 0 -- -- 63
2019-11-16 01:00:00 7.7 6 Sudoeste 16 Oeste 0 -- -- 60
2019-11-16 00:00:00 6.9 2 Sudeste 11 Oeste 0 -- -- 62